createdAt,value
2019-01-25T00:00:38.625Z,72.88
2019-01-25T00:03:10.281Z,73.13
2019-01-25T00:05:38.434Z,72.69
2019-01-25T00:08:07.448Z,73.18
2019-01-25T00:10:36.482Z,73.14
2019-01-25T00:13:05.489Z,73.37
2019-01-25T00:15:34.516Z,73.37
2019-01-25T00:18:03.542Z,73.37
2019-01-25T00:20:32.572Z,72.77
2019-01-25T00:23:01.587Z,73.22
2019-01-25T00:25:30.656Z,73.38
2019-01-25T00:27:59.666Z,73.57
2019-01-25T00:30:28.674Z,74.29
2019-01-25T00:32:57.655Z,73.34
2019-01-25T00:35:26.720Z,73.71
2019-01-25T00:37:55.803Z,73.78
2019-01-25T00:40:24.804Z,73.47
2019-01-25T00:42:53.814Z,73.88
2019-01-25T00:45:22.864Z,73.75
2019-01-25T00:47:51.850Z,73.50
2019-01-25T00:50:20.981Z,73.59
2019-01-25T00:52:50.036Z,73.78
2019-01-25T00:55:19.197Z,73.46
2019-01-25T00:57:48.208Z,73.90
2019-01-25T01:00:19.801Z,74.93
2019-01-25T01:02:48.845Z,74.49
2019-01-25T01:05:17.949Z,74.36
2019-01-25T01:07:48.715Z,74.28
2019-01-25T01:10:17.726Z,74.26
2019-01-25T01:12:46.754Z,74.30
2019-01-25T01:15:15.768Z,74.30
2019-01-25T01:17:44.850Z,74.05
2019-01-25T01:20:15.822Z,74.38
2019-01-25T01:22:44.830Z,74.19
2019-01-25T01:25:14.368Z,74.86
2019-01-25T01:27:43.425Z,74.80
2019-01-25T01:30:15.795Z,74.02
2019-01-25T01:32:44.825Z,75.25
2019-01-25T01:35:13.834Z,75.33
2019-01-25T01:37:42.879Z,74.44
2019-01-25T01:40:23.019Z,75.12
2019-01-25T01:42:52.152Z,75.01
2019-01-25T01:45:21.283Z,74.71
2019-01-25T01:47:50.277Z,74.38
2019-01-25T01:50:19.412Z,74.96
2019-01-25T01:52:49.338Z,74.88
2019-01-25T01:55:18.322Z,75.38
2019-01-25T01:57:47.324Z,74.95
2019-01-25T02:00:24.529Z,75.61
2019-01-25T02:02:53.523Z,75.43
2019-01-25T02:05:22.604Z,75.32
2019-01-25T02:07:51.586Z,75.91
2019-01-25T02:10:29.436Z,75.84
2019-01-25T02:12:56.302Z,76.54
2019-01-25T02:15:25.578Z,75.99
2019-01-25T02:17:55.110Z,77.16
2019-01-25T02:20:29.575Z,77.22
2019-01-25T02:22:58.562Z,76.79
2019-01-25T02:25:27.566Z,75.86
2019-01-25T02:27:56.602Z,75.92
2019-01-25T02:30:26.573Z,76.67
2019-01-25T02:32:55.560Z,77.31
2019-01-25T02:35:24.593Z,76.36
2019-01-25T02:37:53.570Z,76.74
2019-01-25T02:40:24.492Z,77.00
2019-01-25T02:42:53.661Z,77.10
2019-01-25T02:45:22.815Z,77.67
2019-01-25T02:47:51.806Z,77.73
2019-01-25T02:50:20.821Z,76.63
2019-01-25T02:52:49.810Z,78.51
2019-01-25T02:55:18.857Z,77.72
2019-01-25T02:57:47.847Z,78.02
2019-01-25T03:00:21.649Z,77.94
2019-01-25T03:02:50.634Z,77.47
2019-01-25T03:05:20.147Z,78.16
2019-01-25T03:07:49.457Z,78.27
2019-01-25T03:10:18.742Z,79.19
2019-01-25T03:12:47.779Z,79.34
2019-01-25T03:15:18.781Z,78.60
2019-01-25T03:17:47.923Z,78.44
2019-01-25T03:20:16.947Z,78.77
2019-01-25T03:22:45.978Z,79.05
2019-01-25T03:25:17.719Z,79.07
2019-01-25T03:27:46.752Z,79.75
2019-01-25T03:30:17.572Z,79.47
2019-01-25T03:32:46.673Z,79.00
2019-01-25T03:35:15.896Z,79.58
2019-01-25T03:37:44.917Z,79.58
2019-01-25T03:40:16.773Z,80.70
2019-01-25T03:42:45.832Z,80.87
2019-01-25T03:45:15.092Z,80.35
2019-01-25T03:47:44.208Z,80.66
2019-01-25T03:50:14.927Z,80.29
2019-01-25T03:52:43.969Z,80.32
2019-01-25T03:55:13.541Z,79.82
2019-01-25T03:57:42.569Z,80.05
2019-01-25T04:00:14.686Z,80.44
2019-01-25T04:02:43.754Z,79.85
2019-01-25T04:05:13.484Z,80.24
2019-01-25T04:07:42.536Z,80.80
2019-01-25T04:10:13.247Z,81.07
2019-01-25T04:12:42.311Z,80.75
2019-01-25T04:15:14.273Z,81.15
2019-01-25T04:17:43.335Z,81.92
2019-01-25T04:20:14.100Z,81.05
2019-01-25T04:22:43.156Z,80.99
2019-01-25T04:25:14.462Z,81.03
2019-01-25T04:27:43.478Z,81.76
2019-01-25T04:30:15.829Z,81.53
2019-01-25T04:32:44.880Z,81.96
2019-01-25T04:35:13.955Z,81.47
2019-01-25T04:37:42.996Z,81.60
2019-01-25T04:40:14.069Z,81.53
2019-01-25T04:42:43.120Z,82.07
2019-01-25T04:45:14.016Z,81.29
2019-01-25T04:47:43.047Z,80.93
2019-01-25T04:50:14.962Z,81.17
2019-01-25T04:52:43.976Z,81.23
2019-01-25T04:55:23.990Z,81.88
2019-01-25T04:57:53.136Z,81.62
2019-01-25T05:00:23.019Z,81.85
2019-01-25T05:02:56.985Z,81.87
2019-01-25T05:05:26.082Z,82.03
2019-01-25T05:08:02.953Z,81.55
2019-01-25T05:10:32.316Z,81.30
2019-01-25T05:13:01.359Z,81.59
2019-01-25T05:15:30.608Z,82.27
2019-01-25T05:17:59.640Z,82.43
2019-01-25T05:20:28.758Z,82.28
2019-01-25T05:22:59.003Z,82.13
2019-01-25T05:25:28.492Z,82.06
2019-01-25T05:27:57.609Z,82.31
2019-01-25T05:30:26.764Z,81.69
2019-01-25T05:32:55.837Z,80.90
2019-01-25T05:35:25.045Z,81.78
2019-01-25T05:37:54.184Z,82.03
2019-01-25T05:40:25.094Z,82.38
2019-01-25T05:42:54.188Z,82.04
2019-01-25T05:45:23.280Z,82.66
2019-01-25T05:47:52.367Z,82.24
2019-01-25T05:50:21.438Z,81.87
2019-01-25T05:52:50.501Z,81.71
2019-01-25T05:55:20.903Z,82.08
2019-01-25T05:57:49.972Z,82.83
2019-01-25T06:00:27.650Z,82.61
2019-01-25T06:02:57.502Z,83.05
2019-01-25T06:05:26.530Z,83.33
2019-01-25T06:07:55.675Z,82.49
2019-01-25T06:10:24.790Z,82.59
2019-01-25T06:12:54.708Z,82.71
2019-01-25T06:15:25.482Z,82.39
2019-01-25T06:17:54.526Z,83.00
2019-01-25T06:20:23.537Z,82.62
2019-01-25T06:22:54.177Z,83.13
2019-01-25T06:25:23.237Z,83.27
2019-01-25T06:27:52.237Z,83.05
2019-01-25T06:30:21.277Z,83.65
2019-01-25T06:32:50.300Z,83.06
2019-01-25T06:35:19.342Z,83.37
2019-01-25T06:37:48.389Z,83.07
2019-01-25T06:40:17.514Z,83.15
2019-01-25T06:42:46.534Z,82.83
2019-01-25T06:45:15.595Z,82.58
2019-01-25T06:47:44.626Z,82.70
2019-01-25T06:50:13.771Z,83.44
2019-01-25T06:52:42.863Z,83.17
2019-01-25T06:55:11.908Z,83.47
2019-01-25T06:58:00.552Z,83.35
2019-01-25T07:00:30.126Z,83.99
2019-01-25T07:02:59.147Z,83.95
2019-01-25T07:05:28.190Z,83.53
2019-01-25T07:07:57.217Z,83.55
2019-01-25T07:10:26.271Z,83.44
2019-01-25T07:12:55.272Z,84.12
2019-01-25T07:15:24.766Z,83.64
2019-01-25T07:17:53.824Z,83.50
2019-01-25T07:20:22.916Z,83.35
2019-01-25T07:22:51.979Z,83.54
2019-01-25T07:25:21.126Z,83.05
2019-01-25T07:27:50.127Z,83.47
2019-01-25T07:30:19.172Z,83.71
2019-01-25T07:32:48.184Z,83.61
2019-01-25T07:35:17.223Z,83.81
2019-01-25T07:37:46.267Z,83.81
2019-01-25T07:40:15.334Z,84.16
2019-01-25T07:42:44.605Z,83.42
2019-01-25T07:45:13.621Z,83.95
2019-01-25T07:47:42.694Z,83.27
2019-01-25T07:50:11.678Z,83.33
2019-01-25T07:52:40.710Z,83.70
2019-01-25T07:55:09.770Z,83.90
2019-01-25T07:57:38.845Z,83.77
2019-01-25T08:00:08.474Z,84.03
2019-01-25T08:02:37.565Z,83.82
2019-01-25T08:05:08.056Z,83.93
2019-01-25T08:07:37.213Z,83.92
2019-01-25T08:10:07.588Z,83.32
2019-01-25T08:12:36.815Z,83.85
2019-01-25T08:15:08.231Z,83.73
2019-01-25T08:17:37.370Z,83.61
2019-01-25T08:20:08.492Z,83.66
2019-01-25T08:22:37.671Z,83.91
2019-01-25T08:25:07.786Z,84.06
2019-01-25T08:27:36.965Z,83.72
2019-01-25T08:30:08.234Z,83.46
2019-01-25T08:32:37.455Z,82.85
2019-01-25T08:35:09.190Z,83.28
2019-01-25T08:37:38.454Z,83.56
2019-01-25T08:40:09.309Z,83.38
2019-01-25T08:42:38.364Z,83.59
2019-01-25T08:45:09.390Z,83.47
2019-01-25T08:47:38.463Z,83.93
2019-01-25T08:50:11.732Z,83.43
2019-01-25T08:52:40.717Z,83.22
2019-01-25T08:55:09.806Z,83.56
2019-01-25T08:57:38.853Z,83.50
2019-01-25T09:00:11.828Z,83.55
2019-01-25T09:02:40.893Z,83.22
2019-01-25T09:05:10.780Z,83.22
2019-01-25T09:07:40.149Z,83.02
2019-01-25T09:10:12.211Z,82.52
2019-01-25T09:12:41.250Z,82.42
2019-01-25T09:15:13.171Z,82.92
2019-01-25T09:17:42.352Z,82.63
2019-01-25T09:20:14.718Z,82.85
2019-01-25T09:22:43.754Z,83.00
2019-01-25T09:25:12.829Z,82.89
2019-01-25T09:27:41.868Z,82.47
2019-01-25T09:30:13.770Z,82.34
2019-01-25T09:32:43.793Z,82.18
2019-01-25T09:35:12.999Z,81.46
2019-01-25T09:37:42.081Z,81.35
2019-01-25T09:40:14.116Z,81.21
2019-01-25T09:42:43.143Z,81.08
2019-01-25T09:45:12.226Z,80.95
2019-01-25T09:47:41.324Z,80.71
2019-01-25T09:50:12.714Z,80.52
2019-01-25T09:52:41.760Z,81.04
2019-01-25T09:55:13.877Z,80.95
2019-01-25T09:57:43.044Z,80.87
2019-01-25T10:00:19.426Z,81.38
2019-01-25T10:02:48.513Z,80.93
2019-01-25T10:05:17.653Z,80.77
2019-01-25T10:07:46.737Z,81.12
2019-01-25T10:10:16.076Z,80.81
2019-01-25T10:12:45.162Z,80.66
2019-01-25T10:15:16.917Z,81.40
2019-01-25T10:17:46.007Z,81.36
2019-01-25T10:20:15.173Z,82.01
2019-01-25T10:22:44.200Z,81.29
2019-01-25T10:25:13.266Z,81.33
2019-01-25T10:27:42.316Z,81.03
2019-01-25T10:30:14.158Z,80.75
2019-01-25T10:32:43.230Z,80.72
2019-01-25T10:35:12.386Z,79.69
2019-01-25T10:37:41.431Z,78.99
2019-01-25T10:40:13.323Z,78.51
2019-01-25T10:42:45.540Z,78.99
2019-01-25T10:45:25.810Z,79.37
2019-01-25T10:47:54.907Z,78.76
2019-01-25T10:50:23.964Z,79.28
2019-01-25T10:52:53.015Z,79.16
2019-01-25T10:55:22.057Z,79.24
2019-01-25T10:57:51.165Z,78.42
2019-01-25T11:00:20.242Z,78.79
2019-01-25T11:02:49.268Z,78.21
2019-01-25T11:05:20.579Z,78.98
2019-01-25T11:07:49.614Z,78.32
2019-01-25T11:10:18.684Z,78.56
2019-01-25T11:12:47.737Z,78.67
2019-01-25T11:15:19.000Z,78.33
2019-01-25T11:17:48.578Z,78.33
2019-01-25T11:20:19.763Z,78.96
2019-01-25T11:22:48.834Z,77.77
2019-01-25T11:25:38.608Z,78.30
2019-01-25T11:28:07.632Z,78.57
2019-01-25T11:30:36.690Z,79.55
2019-01-25T11:33:05.818Z,79.24
2019-01-25T11:35:34.905Z,79.45
2019-01-25T11:38:03.983Z,79.91
2019-01-25T11:40:35.745Z,79.82
2019-01-25T11:43:08.958Z,79.72
2019-01-25T11:45:35.826Z,79.43
2019-01-25T11:48:06.724Z,79.45
2019-01-25T11:50:35.790Z,78.33
2019-01-25T11:53:04.875Z,77.66
2019-01-25T11:55:33.949Z,78.39
2019-01-25T11:58:03.006Z,78.71
2019-01-25T12:00:32.749Z,77.65
2019-01-25T12:03:01.811Z,77.15
2019-01-25T12:05:30.909Z,77.18
2019-01-25T12:07:59.961Z,77.41
2019-01-25T12:10:30.148Z,77.07
2019-01-25T12:12:59.178Z,76.26
2019-01-25T12:15:28.244Z,76.25
2019-01-25T12:17:57.284Z,76.45
2019-01-25T12:20:28.436Z,76.53
2019-01-25T12:22:57.534Z,76.90
2019-01-25T12:25:26.622Z,76.11
2019-01-25T12:27:55.674Z,76.22
2019-01-25T12:30:29.542Z,75.49
2019-01-25T12:32:58.656Z,76.83
2019-01-25T12:35:28.849Z,76.86
2019-01-25T12:37:57.947Z,77.15
2019-01-25T12:40:27.009Z,76.30
2019-01-25T12:42:56.146Z,75.81
2019-01-25T12:45:26.466Z,76.07
2019-01-25T12:47:55.542Z,75.55
2019-01-25T12:50:27.653Z,74.40
2019-01-25T12:52:56.714Z,73.73
2019-01-25T12:55:25.819Z,74.89
2019-01-25T12:57:54.894Z,73.86
2019-01-25T13:00:24.356Z,73.66
2019-01-25T13:02:53.655Z,75.02
2019-01-25T13:05:23.557Z,74.51
2019-01-25T13:07:52.750Z,74.90
2019-01-25T13:10:22.236Z,74.93
2019-01-25T13:12:51.392Z,73.99
2019-01-25T13:15:20.512Z,73.60
2019-01-25T13:17:49.879Z,74.64
2019-01-25T13:20:21.271Z,74.79
2019-01-25T13:22:50.364Z,74.02
2019-01-25T13:25:19.485Z,74.56
2019-01-25T13:27:48.631Z,74.41
2019-01-25T13:30:20.132Z,74.20
2019-01-25T13:32:52.055Z,74.00
2019-01-25T13:35:21.273Z,74.00
2019-01-25T13:37:50.495Z,74.40
2019-01-25T13:40:20.948Z,73.93
2019-01-25T13:42:51.216Z,74.75
2019-01-25T13:46:07.968Z,75.04
2019-01-25T13:48:40.597Z,75.04
2019-01-25T13:51:23.190Z,74.55
2019-01-25T13:53:51.503Z,74.05
2019-01-25T13:56:23.599Z,74.51
2019-01-25T13:59:09.123Z,73.93
2019-01-25T14:01:48.715Z,73.35
2019-01-25T14:04:17.863Z,73.24
2019-01-25T14:06:46.904Z,73.31
2019-01-25T14:09:16.909Z,73.11
2019-01-25T14:11:46.162Z,73.13
2019-01-25T14:14:15.290Z,72.93
2019-01-25T14:16:44.381Z,72.94
2019-01-25T14:19:13.469Z,73.36
2019-01-25T14:21:42.673Z,72.96
2019-01-25T14:24:16.466Z,73.67
2019-01-25T14:26:42.628Z,73.03
2019-01-25T14:29:11.787Z,73.36
2019-01-25T14:31:40.869Z,73.59
2019-01-25T14:34:09.912Z,73.82
2019-01-25T14:36:39.032Z,74.45
2019-01-25T14:39:09.126Z,74.54
2019-01-25T14:41:38.246Z,74.13
2019-01-25T14:44:07.341Z,74.30
2019-01-25T14:46:36.570Z,74.07
2019-01-25T14:49:05.656Z,73.75
2019-01-25T14:51:34.785Z,73.78
2019-01-25T14:54:03.916Z,73.76
2019-01-25T14:56:33.046Z,73.51
2019-01-25T14:59:02.134Z,73.57
2019-01-25T15:01:31.235Z,72.99
2019-01-25T15:04:00.469Z,73.82
2019-01-25T15:06:29.488Z,73.41
2019-01-25T15:08:58.596Z,73.41
2019-01-25T15:11:27.846Z,74.00
2019-01-25T15:14:02.240Z,74.18
2019-01-25T15:16:27.738Z,73.98
2019-01-25T15:18:56.801Z,74.47
2019-01-25T15:21:25.860Z,74.52
2019-01-25T15:23:55.033Z,74.52
2019-01-25T15:26:24.068Z,74.69
2019-01-25T15:28:53.166Z,74.25
2019-01-25T15:31:22.273Z,75.18
2019-01-25T15:33:51.441Z,75.99
2019-01-25T15:36:20.536Z,77.57
2019-01-25T15:38:49.683Z,78.60
2019-01-25T15:41:18.765Z,79.40
2019-01-25T15:43:48.101Z,79.78
2019-01-25T15:46:17.275Z,80.85
2019-01-25T15:48:46.459Z,83.48
2019-01-25T15:51:15.738Z,83.12
2019-01-25T15:53:44.892Z,83.16
2019-01-25T15:56:13.980Z,83.36
2019-01-25T15:58:54.344Z,82.71
2019-01-25T16:01:23.445Z,82.70
2019-01-25T16:03:52.583Z,83.42
2019-01-25T16:06:21.786Z,83.53
2019-01-25T16:08:50.881Z,83.74
2019-01-25T16:12:17.791Z,83.83
2019-01-25T16:15:33.370Z,84.19
2019-01-25T16:18:02.509Z,84.25
2019-01-25T16:24:27.892Z,84.99
2019-01-25T16:26:57.094Z,86.07
2019-01-25T16:29:26.315Z,85.73
2019-01-25T16:31:55.554Z,85.68
2019-01-25T16:34:24.886Z,86.01
2019-01-25T16:36:54.022Z,86.33
2019-01-25T16:40:05.530Z,86.55
2019-01-25T16:42:46.243Z,87.14
2019-01-25T16:45:35.829Z,86.93
2019-01-25T16:48:05.232Z,86.68
2019-01-25T16:50:34.675Z,87.48
2019-01-25T16:53:03.858Z,87.25
2019-01-25T16:55:37.276Z,86.84
2019-01-25T16:58:06.795Z,87.23
2019-01-25T17:00:39.018Z,86.92
2019-01-25T17:03:08.249Z,86.80
2019-01-25T17:05:37.500Z,86.87
2019-01-25T17:08:06.840Z,86.69
2019-01-25T17:10:36.260Z,86.82
2019-01-25T17:13:05.814Z,86.75
2019-01-25T17:15:35.114Z,86.78
2019-01-25T17:18:04.330Z,86.61
2019-01-25T17:20:33.520Z,86.94
2019-01-25T17:23:02.810Z,86.80
2019-01-25T17:25:31.993Z,87.35
2019-01-25T17:28:01.158Z,87.79
2019-01-25T17:30:32.524Z,88.03
2019-01-25T17:33:02.326Z,87.63
2019-01-25T17:35:31.980Z,88.33
2019-01-25T17:38:01.341Z,88.31
2019-01-25T17:40:32.429Z,88.13
2019-01-25T17:46:36.525Z,87.85
2019-01-25T17:49:05.673Z,87.64
2019-01-25T17:51:34.800Z,88.04
2019-01-25T17:54:28.224Z,87.91
2019-01-25T17:56:56.523Z,87.72
2019-01-25T17:59:26.599Z,88.62
2019-01-25T18:01:55.712Z,88.16
2019-01-25T18:04:25.031Z,87.86
2019-01-25T18:06:54.228Z,88.02
2019-01-25T18:09:23.442Z,88.12
2019-01-25T18:11:52.832Z,87.79
2019-01-25T18:14:25.612Z,88.09
2019-01-25T18:16:54.726Z,88.54
2019-01-25T18:19:23.911Z,89.10
2019-01-25T18:21:53.085Z,88.81
2019-01-25T18:24:22.329Z,89.08
2019-01-25T18:26:51.499Z,89.15
2019-01-25T18:29:31.759Z,89.29
2019-01-25T18:32:00.881Z,89.18
2019-01-25T18:34:30.013Z,89.09
2019-01-25T18:36:59.608Z,89.29
2019-01-25T18:39:28.683Z,89.07
2019-01-25T18:41:57.918Z,89.49
2019-01-25T18:44:27.665Z,89.56
2019-01-25T18:46:56.766Z,91.00
2019-01-25T18:49:25.908Z,89.84
2019-01-25T18:51:55.108Z,89.08
2019-01-25T18:54:24.222Z,88.74
2019-01-25T18:56:56.144Z,88.50
2019-01-25T18:59:25.265Z,88.34
2019-01-25T19:01:54.587Z,88.15
2019-01-25T19:04:23.697Z,88.13
2019-01-25T19:06:53.128Z,88.31
2019-01-25T19:09:22.361Z,88.33
2019-01-25T19:11:51.850Z,88.35
2019-01-25T19:14:21.227Z,88.36
2019-01-25T19:16:50.480Z,88.33
2019-01-25T19:19:19.748Z,88.26
2019-01-25T19:21:49.042Z,88.18
2019-01-25T19:24:18.561Z,88.54
2019-01-25T19:26:47.887Z,88.69
2019-01-25T19:29:17.293Z,88.95
2019-01-25T19:31:49.067Z,88.92
2019-01-25T19:34:18.387Z,88.95
2019-01-25T19:36:47.959Z,88.97
2019-01-25T19:39:17.313Z,88.81
2019-01-25T19:41:47.744Z,88.96
2019-01-25T19:44:19.406Z,89.15
2019-01-25T19:46:49.270Z,89.28
2019-01-25T19:49:19.880Z,89.35
2019-01-25T19:51:54.287Z,89.12
2019-01-25T19:54:23.650Z,88.94
2019-01-25T19:56:52.922Z,88.82
2019-01-25T19:59:22.038Z,88.84
2019-01-25T20:01:51.338Z,88.77
2019-01-25T20:04:20.534Z,88.57
2019-01-25T20:06:52.727Z,88.67
2019-01-25T20:09:21.892Z,88.84
2019-01-25T20:11:52.923Z,88.61
2019-01-25T20:14:22.131Z,87.68
2019-01-25T20:16:54.434Z,88.16
2019-01-25T20:19:24.664Z,88.50
2019-01-25T20:21:53.879Z,87.74
2019-01-25T20:24:23.872Z,87.99
2019-01-25T20:26:53.043Z,88.31
2019-01-25T20:29:22.269Z,88.24
2019-01-25T20:31:51.472Z,88.13
2019-01-25T20:34:20.660Z,88.03
2019-01-25T20:36:49.851Z,88.12
2019-01-25T20:39:19.180Z,88.14
2019-01-25T20:41:48.430Z,88.54
2019-01-25T20:44:17.728Z,88.52
2019-01-25T20:46:46.861Z,88.49
2019-01-25T20:49:16.032Z,88.57
2019-01-25T20:51:45.229Z,89.13
2019-01-25T20:54:14.378Z,89.34
2019-01-25T20:56:43.577Z,89.46
2019-01-25T21:00:13.233Z,89.38
2019-01-25T21:02:51.865Z,89.18
2019-01-25T21:05:21.264Z,89.42
2019-01-25T21:07:50.383Z,89.46
2019-01-25T21:10:28.730Z,89.37
2019-01-25T21:13:00.800Z,89.21
2019-01-25T21:15:35.150Z,89.25
2019-01-25T21:18:10.292Z,89.04
2019-01-25T21:21:10.953Z,89.29
2019-01-25T21:24:30.545Z,89.09
2019-01-25T21:27:01.566Z,89.15
2019-01-25T21:29:30.623Z,90.04
2019-01-25T21:31:59.865Z,90.26
2019-01-25T21:34:29.054Z,89.80
2019-01-25T21:37:00.130Z,89.67
2019-01-25T21:39:29.348Z,89.74
2019-01-25T21:41:59.761Z,90.09
2019-01-25T21:44:28.861Z,89.72
2019-01-25T21:46:58.571Z,89.81
2019-01-25T21:49:27.743Z,89.49
2019-01-25T21:51:56.938Z,89.10
2019-01-25T21:54:26.163Z,89.21
2019-01-25T21:56:57.289Z,89.00
2019-01-25T21:59:26.471Z,89.47
2019-01-25T22:01:55.715Z,89.50
2019-01-25T22:04:25.851Z,89.22
2019-01-25T22:06:55.226Z,89.72
2019-01-25T22:09:24.419Z,89.58
2019-01-25T22:11:53.572Z,89.27
2019-01-25T22:14:22.760Z,89.23
2019-01-25T22:16:51.926Z,89.15
2019-01-25T22:19:22.223Z,89.28
2019-01-25T22:21:54.505Z,89.23
2019-01-25T22:27:47.918Z,89.47
2019-01-25T22:30:19.402Z,89.29
2019-01-25T22:32:49.684Z,89.25
2019-01-25T22:35:18.980Z,89.35
2019-01-25T22:38:07.217Z,89.12
2019-01-25T22:40:36.432Z,89.04
2019-01-25T22:43:05.602Z,89.24
2019-01-25T22:45:34.834Z,89.20
2019-01-25T22:48:04.873Z,88.88
2019-01-25T22:50:36.333Z,89.21
2019-01-25T22:53:05.636Z,89.33
2019-01-25T22:55:34.839Z,89.09
2019-01-25T22:58:04.014Z,89.01
2019-01-25T23:01:04.238Z,88.98
2019-01-25T23:04:00.327Z,89.08
2019-01-25T23:06:42.088Z,89.40
2019-01-25T23:09:27.162Z,89.47
2019-01-25T23:11:56.356Z,89.10
2019-01-25T23:14:25.641Z,89.21
2019-01-25T23:16:54.788Z,89.14
2019-01-25T23:19:24.024Z,89.17
2019-01-25T23:21:53.291Z,89.34
2019-01-25T23:24:22.375Z,89.17
2019-01-25T23:26:51.527Z,89.31
2019-01-25T23:29:20.671Z,89.26
2019-01-25T23:31:51.859Z,89.43
2019-01-25T23:34:21.002Z,89.31
2019-01-25T23:36:50.155Z,89.15
2019-01-25T23:39:19.329Z,89.37
2019-01-25T23:42:46.978Z,89.41
2019-01-25T23:45:55.157Z,89.55
2019-01-25T23:48:24.298Z,89.99
2019-01-25T23:51:01.330Z,89.99
2019-01-25T23:53:30.484Z,89.79
2019-01-25T23:55:59.643Z,89.93
2019-01-25T23:58:28.798Z,89.54
